sensor_id;sensor_type;location;lat;lon;timestamp;P1;durP1;ratioP1;P2;durP2;ratioP2
54261;SDS011;40174;52.364;6.452;2023-04-22T10:41:13;7.28;;;3.15;;
54261;SDS011;40174;52.364;6.452;2023-04-22T10:43:41;8.35;;;3.65;;
54261;SDS011;40174;52.364;6.452;2023-04-22T10:49:09;7.95;;;3.63;;
54261;SDS011;40174;52.364;6.452;2023-04-22T10:51:37;11.77;;;3.67;;
54261;SDS011;40174;52.364;6.452;2023-04-22T10:54:04;6.55;;;3.60;;
54261;SDS011;40174;52.364;6.452;2023-04-22T10:56:33;7.65;;;3.50;;
54261;SDS011;40174;52.364;6.452;2023-04-22T10:59:00;7.10;;;2.95;;
54261;SDS011;40174;52.364;6.452;2023-04-22T11:01:40;7.70;;;3.30;;
54261;SDS011;40174;52.364;6.452;2023-04-22T11:09:41;7.07;;;3.38;;
54261;SDS011;40174;52.364;6.452;2023-04-22T11:15:10;7.72;;;3.33;;
54261;SDS011;40174;52.364;6.452;2023-04-22T11:17:38;8.48;;;3.53;;
54261;SDS011;40174;52.364;6.452;2023-04-22T11:20:07;7.32;;;3.30;;
54261;SDS011;40174;52.364;6.452;2023-04-22T11:22:35;6.30;;;3.10;;
54261;SDS011;40174;52.364;6.452;2023-04-22T11:25:03;6.93;;;3.55;;
54261;SDS011;40174;52.364;6.452;2023-04-22T11:27:31;9.43;;;3.40;;
54261;SDS011;40174;52.364;6.452;2023-04-22T11:30:00;8.57;;;3.13;;
54261;SDS011;40174;52.364;6.452;2023-04-22T11:32:27;6.82;;;3.22;;
54261;SDS011;40174;52.364;6.452;2023-04-22T11:34:54;7.93;;;3.20;;
54261;SDS011;40174;52.364;6.452;2023-04-22T11:37:20;5.72;;;2.80;;
54261;SDS011;40174;52.364;6.452;2023-04-22T11:39:48;7.63;;;3.60;;
54261;SDS011;40174;52.364;6.452;2023-04-22T11:42:15;9.65;;;3.10;;
54261;SDS011;40174;52.364;6.452;2023-04-22T11:44:46;8.05;;;3.13;;
54261;SDS011;40174;52.364;6.452;2023-04-22T11:47:15;7.72;;;3.08;;
54261;SDS011;40174;52.364;6.452;2023-04-22T11:49:52;5.00;;;2.63;;
54261;SDS011;40174;52.364;6.452;2023-04-22T11:52:20;7.68;;;3.22;;
54261;SDS011;40174;52.364;6.452;2023-04-22T11:54:46;7.63;;;2.97;;
54261;SDS011;40174;52.364;6.452;2023-04-22T11:57:13;7.68;;;2.90;;
54261;SDS011;40174;52.364;6.452;2023-04-22T11:59:41;5.07;;;2.80;;
54261;SDS011;40174;52.364;6.452;2023-04-22T12:02:08;7.03;;;2.40;;
54261;SDS011;40174;52.364;6.452;2023-04-22T12:04:37;6.07;;;2.53;;
54261;SDS011;40174;52.364;6.452;2023-04-22T12:07:04;8.75;;;2.78;;
54261;SDS011;40174;52.364;6.452;2023-04-22T12:09:31;7.28;;;2.80;;
54261;SDS011;40174;52.364;6.452;2023-04-22T12:11:58;6.80;;;2.75;;
54261;SDS011;40174;52.364;6.452;2023-04-22T12:14:27;8.15;;;3.30;;
54261;SDS011;40174;52.364;6.452;2023-04-22T12:16:56;6.68;;;3.40;;
54261;SDS011;40174;52.364;6.452;2023-04-22T12:19:24;7.95;;;3.35;;
54261;SDS011;40174;52.364;6.452;2023-04-22T12:21:55;9.45;;;3.13;;
54261;SDS011;40174;52.364;6.452;2023-04-22T12:24:25;7.97;;;3.65;;
54261;SDS011;40174;52.364;6.452;2023-04-22T12:26:53;6.72;;;3.58;;
54261;SDS011;40174;52.364;6.452;2023-04-22T12:29:25;8.55;;;3.47;;
54261;SDS011;40174;52.364;6.452;2023-04-22T12:31:52;6.57;;;3.50;;
54261;SDS011;40174;52.364;6.452;2023-04-22T12:34:19;7.78;;;3.50;;
54261;SDS011;40174;52.364;6.452;2023-04-22T12:36:46;8.50;;;3.95;;
54261;SDS011;40174;52.364;6.452;2023-04-22T12:39:14;10.18;;;4.68;;
54261;SDS011;40174;52.364;6.452;2023-04-22T12:41:40;8.20;;;4.22;;
54261;SDS011;40174;52.364;6.452;2023-04-22T12:44:07;7.45;;;3.47;;
54261;SDS011;40174;52.364;6.452;2023-04-22T12:46:33;8.57;;;3.45;;
54261;SDS011;40174;52.364;6.452;2023-04-22T12:49:00;7.90;;;3.50;;
54261;SDS011;40174;52.364;6.452;2023-04-22T12:51:27;4.65;;;2.92;;
54261;SDS011;40174;52.364;6.452;2023-04-22T12:53:54;8.02;;;3.08;;
54261;SDS011;40174;52.364;6.452;2023-04-22T12:56:22;9.07;;;3.20;;
54261;SDS011;40174;52.364;6.452;2023-04-22T12:58:49;7.32;;;2.88;;
54261;SDS011;40174;52.364;6.452;2023-04-22T13:01:15;9.30;;;3.05;;
54261;SDS011;40174;52.364;6.452;2023-04-22T13:03:42;6.90;;;3.10;;
54261;SDS011;40174;52.364;6.452;2023-04-22T13:06:08;6.28;;;2.88;;
54261;SDS011;40174;52.364;6.452;2023-04-22T13:08:35;5.50;;;3.13;;
54261;SDS011;40174;52.364;6.452;2023-04-22T13:11:02;8.23;;;3.90;;
54261;SDS011;40174;52.364;6.452;2023-04-22T13:13:29;5.80;;;3.22;;
54261;SDS011;40174;52.364;6.452;2023-04-22T13:15:56;8.65;;;2.95;;
54261;SDS011;40174;52.364;6.452;2023-04-22T13:18:23;5.85;;;2.85;;
54261;SDS011;40174;52.364;6.452;2023-04-22T13:20:49;6.70;;;3.20;;
54261;SDS011;40174;52.364;6.452;2023-04-22T13:23:16;5.55;;;2.92;;
54261;SDS011;40174;52.364;6.452;2023-04-22T13:25:43;6.05;;;3.13;;
54261;SDS011;40174;52.364;6.452;2023-04-22T13:28:10;7.60;;;2.83;;
54261;SDS011;40174;52.364;6.452;2023-04-22T13:30:38;6.35;;;2.92;;
54261;SDS011;40174;52.364;6.452;2023-04-22T13:33:05;10.30;;;2.92;;
54261;SDS011;40174;52.364;6.452;2023-04-22T13:35:31;7.20;;;3.53;;
54261;SDS011;40174;52.364;6.452;2023-04-22T13:37:58;5.88;;;3.17;;
54261;SDS011;40174;52.364;6.452;2023-04-22T13:40:25;6.25;;;3.10;;
54261;SDS011;40174;52.364;6.452;2023-04-22T13:42:52;6.00;;;3.13;;
54261;SDS011;40174;52.364;6.452;2023-04-22T13:45:18;6.20;;;3.05;;
54261;SDS011;40174;52.364;6.452;2023-04-22T13:47:46;7.18;;;3.13;;
54261;SDS011;40174;52.364;6.452;2023-04-22T13:50:13;6.90;;;2.80;;
54261;SDS011;40174;52.364;6.452;2023-04-22T13:52:40;7.13;;;3.00;;
54261;SDS011;40174;52.364;6.452;2023-04-22T13:55:07;5.38;;;2.85;;
54261;SDS011;40174;52.364;6.452;2023-04-22T13:57:34;9.20;;;3.63;;
54261;SDS011;40174;52.364;6.452;2023-04-22T14:00:01;6.47;;;4.57;;
54261;SDS011;40174;52.364;6.452;2023-04-22T14:02:37;6.93;;;3.17;;
54261;SDS011;40174;52.364;6.452;2023-04-22T14:05:05;8.07;;;3.47;;
54261;SDS011;40174;52.364;6.452;2023-04-22T14:07:34;7.43;;;3.17;;
54261;SDS011;40174;52.364;6.452;2023-04-22T14:10:00;8.20;;;3.30;;
54261;SDS011;40174;52.364;6.452;2023-04-22T14:12:27;7.68;;;2.80;;
54261;SDS011;40174;52.364;6.452;2023-04-22T14:14:53;6.57;;;3.35;;
54261;SDS011;40174;52.364;6.452;2023-04-22T14:17:20;10.43;;;3.75;;
54261;SDS011;40174;52.364;6.452;2023-04-22T14:19:47;6.20;;;3.03;;
54261;SDS011;40174;52.364;6.452;2023-04-22T14:22:15;7.63;;;3.30;;
54261;SDS011;40174;52.364;6.452;2023-04-22T14:24:42;11.10;;;3.50;;
54261;SDS011;40174;52.364;6.452;2023-04-22T14:27:08;6.55;;;3.35;;
54261;SDS011;40174;52.364;6.452;2023-04-22T14:29:35;8.25;;;3.80;;
54261;SDS011;40174;52.364;6.452;2023-04-22T14:32:02;5.97;;;3.25;;
54261;SDS011;40174;52.364;6.452;2023-04-22T14:34:28;8.60;;;3.40;;
54261;SDS011;40174;52.364;6.452;2023-04-22T14:36:55;9.57;;;3.60;;
54261;SDS011;40174;52.364;6.452;2023-04-22T14:39:23;11.18;;;3.63;;
54261;SDS011;40174;52.364;6.452;2023-04-22T14:41:50;10.07;;;4.25;;
54261;SDS011;40174;52.364;6.452;2023-04-22T14:44:16;11.13;;;4.72;;
54261;SDS011;40174;52.364;6.452;2023-04-22T14:46:43;10.02;;;5.22;;
54261;SDS011;40174;52.364;6.452;2023-04-22T14:49:10;17.48;;;6.30;;
54261;SDS011;40174;52.364;6.452;2023-04-22T14:51:36;13.63;;;6.50;;
54261;SDS011;40174;52.364;6.452;2023-04-22T14:54:03;13.02;;;6.10;;
54261;SDS011;40174;52.364;6.452;2023-04-22T14:56:31;13.73;;;7.25;;
54261;SDS011;40174;52.364;6.452;2023-04-22T14:58:58;15.82;;;7.18;;
54261;SDS011;40174;52.364;6.452;2023-04-22T15:01:25;13.45;;;7.40;;
54261;SDS011;40174;52.364;6.452;2023-04-22T15:03:51;15.40;;;7.78;;
54261;SDS011;40174;52.364;6.452;2023-04-22T15:06:18;13.77;;;8.07;;
54261;SDS011;40174;52.364;6.452;2023-04-22T15:08:45;16.58;;;7.78;;
54261;SDS011;40174;52.364;6.452;2023-04-22T15:11:11;15.85;;;8.45;;
54261;SDS011;40174;52.364;6.452;2023-04-22T15:13:39;18.90;;;7.72;;
54261;SDS011;40174;52.364;6.452;2023-04-22T15:16:06;13.98;;;8.25;;
54261;SDS011;40174;52.364;6.452;2023-04-22T15:18:32;17.65;;;9.30;;
54261;SDS011;40174;52.364;6.452;2023-04-22T15:20:59;16.95;;;9.00;;
54261;SDS011;40174;52.364;6.452;2023-04-22T15:23:27;20.90;;;10.13;;
54261;SDS011;40174;52.364;6.452;2023-04-22T15:25:54;18.40;;;8.57;;
54261;SDS011;40174;52.364;6.452;2023-04-22T15:28:20;17.38;;;9.43;;
54261;SDS011;40174;52.364;6.452;2023-04-22T15:30:49;16.40;;;8.88;;
54261;SDS011;40174;52.364;6.452;2023-04-22T15:33:16;25.70;;;12.38;;
54261;SDS011;40174;52.364;6.452;2023-04-22T15:35:42;18.23;;;9.68;;
54261;SDS011;40174;52.364;6.452;2023-04-22T15:38:11;17.95;;;9.65;;
54261;SDS011;40174;52.364;6.452;2023-04-22T15:40:38;16.80;;;8.90;;
54261;SDS011;40174;52.364;6.452;2023-04-22T15:43:05;20.10;;;10.02;;
54261;SDS011;40174;52.364;6.452;2023-04-22T15:45:32;21.98;;;9.27;;
54261;SDS011;40174;52.364;6.452;2023-04-22T15:48:00;18.10;;;8.90;;
54261;SDS011;40174;52.364;6.452;2023-04-22T15:50:29;16.80;;;8.68;;
54261;SDS011;40174;52.364;6.452;2023-04-22T15:52:56;18.77;;;9.35;;
54261;SDS011;40174;52.364;6.452;2023-04-22T15:55:23;20.63;;;9.45;;
54261;SDS011;40174;52.364;6.452;2023-04-22T15:57:49;16.88;;;8.77;;
54261;SDS011;40174;52.364;6.452;2023-04-22T16:00:16;18.27;;;9.05;;
54261;SDS011;40174;52.364;6.452;2023-04-22T16:02:47;20.08;;;9.15;;
54261;SDS011;40174;52.364;6.452;2023-04-22T16:05:20;15.13;;;8.18;;
54261;SDS011;40174;52.364;6.452;2023-04-22T16:07:48;19.13;;;9.45;;
54261;SDS011;40174;52.364;6.452;2023-04-22T16:10:15;21.05;;;8.70;;
54261;SDS011;40174;52.364;6.452;2023-04-22T16:12:42;16.13;;;8.90;;
54261;SDS011;40174;52.364;6.452;2023-04-22T16:15:09;19.90;;;9.05;;
54261;SDS011;40174;52.364;6.452;2023-04-22T16:17:36;16.15;;;8.93;;
54261;SDS011;40174;52.364;6.452;2023-04-22T16:20:03;15.75;;;8.63;;
54261;SDS011;40174;52.364;6.452;2023-04-22T16:22:32;16.00;;;8.65;;
54261;SDS011;40174;52.364;6.452;2023-04-22T16:24:59;18.33;;;9.27;;
54261;SDS011;40174;52.364;6.452;2023-04-22T16:27:26;16.90;;;8.45;;
54261;SDS011;40174;52.364;6.452;2023-04-22T16:29:52;17.88;;;8.77;;
54261;SDS011;40174;52.364;6.452;2023-04-22T16:32:19;16.63;;;8.30;;
54261;SDS011;40174;52.364;6.452;2023-04-22T16:34:46;15.73;;;7.72;;
54261;SDS011;40174;52.364;6.452;2023-04-22T16:37:12;18.05;;;7.95;;
54261;SDS011;40174;52.364;6.452;2023-04-22T16:39:40;16.00;;;8.27;;
54261;SDS011;40174;52.364;6.452;2023-04-22T16:42:07;14.05;;;7.63;;
54261;SDS011;40174;52.364;6.452;2023-04-22T16:44:34;17.05;;;7.82;;
54261;SDS011;40174;52.364;6.452;2023-04-22T16:47:00;16.27;;;8.30;;
54261;SDS011;40174;52.364;6.452;2023-04-22T16:49:27;13.90;;;7.22;;
54261;SDS011;40174;52.364;6.452;2023-04-22T16:51:53;17.38;;;8.63;;
54261;SDS011;40174;52.364;6.452;2023-04-22T16:54:20;15.77;;;8.27;;
54261;SDS011;40174;52.364;6.452;2023-04-22T16:56:48;19.85;;;8.50;;
54261;SDS011;40174;52.364;6.452;2023-04-22T16:59:14;15.20;;;7.88;;
54261;SDS011;40174;52.364;6.452;2023-04-22T17:01:41;16.50;;;8.50;;
54261;SDS011;40174;52.364;6.452;2023-04-22T17:04:07;17.80;;;9.15;;
54261;SDS011;40174;52.364;6.452;2023-04-22T17:06:35;19.45;;;8.93;;
54261;SDS011;40174;52.364;6.452;2023-04-22T17:09:02;19.30;;;8.88;;
54261;SDS011;40174;52.364;6.452;2023-04-22T17:11:29;17.55;;;8.75;;
54261;SDS011;40174;52.364;6.452;2023-04-22T17:13:58;16.40;;;9.05;;
54261;SDS011;40174;52.364;6.452;2023-04-22T17:16:25;15.77;;;8.10;;
54261;SDS011;40174;52.364;6.452;2023-04-22T17:18:51;16.98;;;8.57;;
54261;SDS011;40174;52.364;6.452;2023-04-22T17:21:18;15.70;;;8.43;;
54261;SDS011;40174;52.364;6.452;2023-04-22T17:23:44;18.17;;;8.60;;
54261;SDS011;40174;52.364;6.452;2023-04-22T17:26:11;15.40;;;7.55;;
54261;SDS011;40174;52.364;6.452;2023-04-22T17:28:38;16.92;;;8.45;;
54261;SDS011;40174;52.364;6.452;2023-04-22T17:31:06;16.15;;;8.60;;
54261;SDS011;40174;52.364;6.452;2023-04-22T17:33:33;16.65;;;8.85;;
54261;SDS011;40174;52.364;6.452;2023-04-22T17:36:00;14.60;;;7.97;;
54261;SDS011;40174;52.364;6.452;2023-04-22T17:38:27;16.88;;;8.48;;
54261;SDS011;40174;52.364;6.452;2023-04-22T17:40:54;14.98;;;7.97;;
54261;SDS011;40174;52.364;6.452;2023-04-22T17:43:20;15.90;;;8.15;;
54261;SDS011;40174;52.364;6.452;2023-04-22T17:45:47;17.85;;;8.48;;
54261;SDS011;40174;52.364;6.452;2023-04-22T17:48:15;18.40;;;8.77;;
54261;SDS011;40174;52.364;6.452;2023-04-22T17:50:41;21.30;;;8.98;;
54261;SDS011;40174;52.364;6.452;2023-04-22T17:53:08;17.83;;;9.25;;
54261;SDS011;40174;52.364;6.452;2023-04-22T17:55:35;17.48;;;9.52;;
54261;SDS011;40174;52.364;6.452;2023-04-22T17:58:03;18.98;;;8.90;;
54261;SDS011;40174;52.364;6.452;2023-04-22T18:00:30;15.48;;;8.00;;
54261;SDS011;40174;52.364;6.452;2023-04-22T18:02:57;13.55;;;7.38;;
54261;SDS011;40174;52.364;6.452;2023-04-22T18:05:26;14.40;;;7.90;;
54261;SDS011;40174;52.364;6.452;2023-04-22T18:07:52;13.75;;;7.47;;
54261;SDS011;40174;52.364;6.452;2023-04-22T18:10:22;13.95;;;6.88;;
54261;SDS011;40174;52.364;6.452;2023-04-22T18:12:48;14.30;;;7.90;;
54261;SDS011;40174;52.364;6.452;2023-04-22T18:15:15;15.32;;;7.38;;
54261;SDS011;40174;52.364;6.452;2023-04-22T18:17:44;14.77;;;7.10;;
54261;SDS011;40174;52.364;6.452;2023-04-22T18:20:10;14.32;;;6.63;;
54261;SDS011;40174;52.364;6.452;2023-04-22T18:22:40;15.27;;;6.78;;
54261;SDS011;40174;52.364;6.452;2023-04-22T18:25:07;12.10;;;6.28;;
54261;SDS011;40174;52.364;6.452;2023-04-22T18:27:34;11.70;;;5.18;;
54261;SDS011;40174;52.364;6.452;2023-04-22T18:30:00;12.18;;;5.80;;
54261;SDS011;40174;52.364;6.452;2023-04-22T18:32:27;13.70;;;6.43;;
54261;SDS011;40174;52.364;6.452;2023-04-22T18:34:54;13.35;;;5.65;;
54261;SDS011;40174;52.364;6.452;2023-04-22T18:37:20;15.65;;;6.55;;
54261;SDS011;40174;52.364;6.452;2023-04-22T18:39:48;11.50;;;6.07;;
54261;SDS011;40174;52.364;6.452;2023-04-22T18:42:15;11.38;;;5.28;;
54261;SDS011;40174;52.364;6.452;2023-04-22T18:44:42;13.55;;;5.95;;
54261;SDS011;40174;52.364;6.452;2023-04-22T18:47:08;14.65;;;6.28;;
54261;SDS011;40174;52.364;6.452;2023-04-22T18:49:35;16.10;;;7.15;;
54261;SDS011;40174;52.364;6.452;2023-04-22T18:52:01;15.75;;;7.38;;
54261;SDS011;40174;52.364;6.452;2023-04-22T18:54:28;17.52;;;7.30;;
54261;SDS011;40174;52.364;6.452;2023-04-22T18:56:56;16.73;;;7.45;;
54261;SDS011;40174;52.364;6.452;2023-04-22T18:59:23;14.98;;;7.22;;
54261;SDS011;40174;52.364;6.452;2023-04-22T19:01:50;14.23;;;7.43;;
54261;SDS011;40174;52.364;6.452;2023-04-22T19:04:16;15.95;;;7.78;;
54261;SDS011;40174;52.364;6.452;2023-04-22T19:06:43;18.55;;;8.77;;
54261;SDS011;40174;52.364;6.452;2023-04-22T19:09:09;18.38;;;8.05;;
54261;SDS011;40174;52.364;6.452;2023-04-22T19:11:36;17.70;;;8.55;;
54261;SDS011;40174;52.364;6.452;2023-04-22T19:14:04;18.27;;;8.25;;
54261;SDS011;40174;52.364;6.452;2023-04-22T19:16:31;17.02;;;8.13;;
54261;SDS011;40174;52.364;6.452;2023-04-22T19:18:57;17.83;;;8.27;;
54261;SDS011;40174;52.364;6.452;2023-04-22T19:21:24;17.60;;;8.15;;
54261;SDS011;40174;52.364;6.452;2023-04-22T19:23:51;21.08;;;9.25;;
54261;SDS011;40174;52.364;6.452;2023-04-22T19:26:17;19.55;;;8.48;;
54261;SDS011;40174;52.364;6.452;2023-04-22T19:28:44;22.48;;;9.95;;
54261;SDS011;40174;52.364;6.452;2023-04-22T19:31:14;20.95;;;9.85;;
54261;SDS011;40174;52.364;6.452;2023-04-22T19:33:41;23.65;;;10.55;;
54261;SDS011;40174;52.364;6.452;2023-04-22T19:36:08;26.92;;;12.45;;
54261;SDS011;40174;52.364;6.452;2023-04-22T19:38:35;24.60;;;11.25;;
54261;SDS011;40174;52.364;6.452;2023-04-22T19:41:01;23.17;;;10.68;;
54261;SDS011;40174;52.364;6.452;2023-04-22T19:43:28;26.00;;;12.23;;
54261;SDS011;40174;52.364;6.452;2023-04-22T19:45:55;30.52;;;13.23;;
54261;SDS011;40174;52.364;6.452;2023-04-22T19:48:24;28.48;;;12.05;;
54261;SDS011;40174;52.364;6.452;2023-04-22T19:50:51;27.60;;;12.52;;
54261;SDS011;40174;52.364;6.452;2023-04-22T19:53:17;28.77;;;12.05;;
54261;SDS011;40174;52.364;6.452;2023-04-22T19:55:45;24.95;;;11.57;;
54261;SDS011;40174;52.364;6.452;2023-04-22T19:58:11;26.38;;;11.40;;
54261;SDS011;40174;52.364;6.452;2023-04-22T20:00:39;27.55;;;11.88;;
54261;SDS011;40174;52.364;6.452;2023-04-22T20:03:06;24.15;;;11.20;;
54261;SDS011;40174;52.364;6.452;2023-04-22T20:05:36;22.27;;;9.45;;
54261;SDS011;40174;52.364;6.452;2023-04-22T20:08:03;23.77;;;11.02;;
54261;SDS011;40174;52.364;6.452;2023-04-22T20:10:32;25.55;;;11.13;;
54261;SDS011;40174;52.364;6.452;2023-04-22T20:12:59;23.63;;;10.90;;
54261;SDS011;40174;52.364;6.452;2023-04-22T20:15:28;20.15;;;9.88;;
54261;SDS011;40174;52.364;6.452;2023-04-22T20:17:55;25.27;;;10.52;;
54261;SDS011;40174;52.364;6.452;2023-04-22T20:20:22;23.55;;;10.65;;
54261;SDS011;40174;52.364;6.452;2023-04-22T20:22:50;26.15;;;11.77;;
54261;SDS011;40174;52.364;6.452;2023-04-22T20:25:18;24.50;;;11.45;;
54261;SDS011;40174;52.364;6.452;2023-04-22T20:27:47;25.67;;;11.18;;
54261;SDS011;40174;52.364;6.452;2023-04-22T20:30:14;26.08;;;10.70;;
54261;SDS011;40174;52.364;6.452;2023-04-22T20:32:41;25.60;;;10.63;;
54261;SDS011;40174;52.364;6.452;2023-04-22T20:35:08;27.02;;;12.00;;
54261;SDS011;40174;52.364;6.452;2023-04-22T20:37:38;26.45;;;12.63;;
54261;SDS011;40174;52.364;6.452;2023-04-22T20:40:08;25.55;;;12.15;;
54261;SDS011;40174;52.364;6.452;2023-04-22T20:42:36;27.27;;;11.82;;
54261;SDS011;40174;52.364;6.452;2023-04-22T20:45:03;34.42;;;12.82;;
54261;SDS011;40174;52.364;6.452;2023-04-22T20:47:30;29.75;;;11.60;;
54261;SDS011;40174;52.364;6.452;2023-04-22T20:49:57;32.22;;;13.50;;
54261;SDS011;40174;52.364;6.452;2023-04-22T20:52:24;26.00;;;12.27;;
54261;SDS011;40174;52.364;6.452;2023-04-22T20:54:50;30.80;;;13.02;;
54261;SDS011;40174;52.364;6.452;2023-04-22T20:57:20;26.02;;;11.43;;
54261;SDS011;40174;52.364;6.452;2023-04-22T20:59:47;28.60;;;11.77;;
54261;SDS011;40174;52.364;6.452;2023-04-22T21:02:13;31.98;;;12.52;;
54261;SDS011;40174;52.364;6.452;2023-04-22T21:04:41;28.02;;;12.52;;
54261;SDS011;40174;52.364;6.452;2023-04-22T21:07:09;29.63;;;12.38;;
54261;SDS011;40174;52.364;6.452;2023-04-22T21:09:38;31.65;;;12.88;;
54261;SDS011;40174;52.364;6.452;2023-04-22T21:12:06;28.45;;;11.90;;
54261;SDS011;40174;52.364;6.452;2023-04-22T21:14:36;31.15;;;13.13;;
54261;SDS011;40174;52.364;6.452;2023-04-22T21:17:03;29.67;;;13.57;;
54261;SDS011;40174;52.364;6.452;2023-04-22T21:19:34;30.33;;;12.35;;
54261;SDS011;40174;52.364;6.452;2023-04-22T21:22:04;28.52;;;11.65;;
54261;SDS011;40174;52.364;6.452;2023-04-22T21:24:33;28.02;;;12.30;;
54261;SDS011;40174;52.364;6.452;2023-04-22T21:27:00;29.30;;;14.07;;
54261;SDS011;40174;52.364;6.452;2023-04-22T21:29:27;32.63;;;13.35;;
54261;SDS011;40174;52.364;6.452;2023-04-22T21:31:56;28.80;;;12.50;;
54261;SDS011;40174;52.364;6.452;2023-04-22T21:34:22;29.73;;;13.32;;
54261;SDS011;40174;52.364;6.452;2023-04-22T21:36:49;32.13;;;13.25;;
54261;SDS011;40174;52.364;6.452;2023-04-22T21:39:16;36.92;;;13.77;;
54261;SDS011;40174;52.364;6.452;2023-04-22T21:41:43;27.85;;;12.95;;
54261;SDS011;40174;52.364;6.452;2023-04-22T21:44:09;33.42;;;13.38;;
54261;SDS011;40174;52.364;6.452;2023-04-22T21:46:36;30.92;;;12.50;;
54261;SDS011;40174;52.364;6.452;2023-04-22T21:49:04;31.58;;;13.55;;
54261;SDS011;40174;52.364;6.452;2023-04-22T21:51:30;33.00;;;12.48;;
54261;SDS011;40174;52.364;6.452;2023-04-22T21:53:57;31.77;;;13.30;;
54261;SDS011;40174;52.364;6.452;2023-04-22T21:56:25;34.28;;;13.95;;
54261;SDS011;40174;52.364;6.452;2023-04-22T21:58:51;32.05;;;14.05;;
54261;SDS011;40174;52.364;6.452;2023-04-22T22:01:18;34.85;;;15.15;;
54261;SDS011;40174;52.364;6.452;2023-04-22T22:03:45;32.67;;;13.55;;
54261;SDS011;40174;52.364;6.452;2023-04-22T22:06:12;31.40;;;13.88;;
54261;SDS011;40174;52.364;6.452;2023-04-22T22:08:39;34.75;;;14.77;;
54261;SDS011;40174;52.364;6.452;2023-04-22T22:11:06;32.90;;;13.68;;
54261;SDS011;40174;52.364;6.452;2023-04-22T22:13:33;37.13;;;15.43;;
54261;SDS011;40174;52.364;6.452;2023-04-22T22:15:59;34.00;;;14.77;;
54261;SDS011;40174;52.364;6.452;2023-04-22T22:18:26;37.75;;;15.32;;
54261;SDS011;40174;52.364;6.452;2023-04-22T22:20:52;31.27;;;14.98;;
54261;SDS011;40174;52.364;6.452;2023-04-22T22:23:21;34.97;;;13.98;;
54261;SDS011;40174;52.364;6.452;2023-04-22T22:25:47;40.85;;;15.88;;
54261;SDS011;40174;52.364;6.452;2023-04-22T22:28:14;37.03;;;15.32;;
54261;SDS011;40174;52.364;6.452;2023-04-22T22:30:42;37.90;;;15.85;;
54261;SDS011;40174;52.364;6.452;2023-04-22T22:33:08;41.08;;;16.10;;
54261;SDS011;40174;52.364;6.452;2023-04-22T22:35:35;37.60;;;16.23;;
54261;SDS011;40174;52.364;6.452;2023-04-22T22:38:01;44.13;;;17.50;;
54261;SDS011;40174;52.364;6.452;2023-04-22T22:40:29;36.83;;;15.75;;
54261;SDS011;40174;52.364;6.452;2023-04-22T22:42:56;44.70;;;17.05;;
54261;SDS011;40174;52.364;6.452;2023-04-22T22:45:23;39.33;;;16.63;;
54261;SDS011;40174;52.364;6.452;2023-04-22T22:47:49;41.22;;;16.67;;
54261;SDS011;40174;52.364;6.452;2023-04-22T22:50:17;36.85;;;16.17;;
54261;SDS011;40174;52.364;6.452;2023-04-22T22:52:44;45.17;;;18.08;;
54261;SDS011;40174;52.364;6.452;2023-04-22T22:55:11;38.97;;;16.52;;
54261;SDS011;40174;52.364;6.452;2023-04-22T22:57:39;40.60;;;16.38;;
54261;SDS011;40174;52.364;6.452;2023-04-22T23:00:06;38.38;;;16.00;;
54261;SDS011;40174;52.364;6.452;2023-04-22T23:02:36;38.60;;;15.25;;
54261;SDS011;40174;52.364;6.452;2023-04-22T23:05:02;47.83;;;17.80;;
54261;SDS011;40174;52.364;6.452;2023-04-22T23:07:30;43.35;;;16.33;;
54261;SDS011;40174;52.364;6.452;2023-04-22T23:09:57;43.85;;;18.40;;
54261;SDS011;40174;52.364;6.452;2023-04-22T23:12:23;41.92;;;16.27;;
54261;SDS011;40174;52.364;6.452;2023-04-22T23:14:51;43.20;;;17.30;;
54261;SDS011;40174;52.364;6.452;2023-04-22T23:17:18;43.13;;;16.65;;
54261;SDS011;40174;52.364;6.452;2023-04-22T23:19:46;40.80;;;17.02;;
54261;SDS011;40174;52.364;6.452;2023-04-22T23:22:16;46.60;;;19.00;;
54261;SDS011;40174;52.364;6.452;2023-04-22T23:24:43;43.40;;;18.30;;
54261;SDS011;40174;52.364;6.452;2023-04-22T23:27:10;44.25;;;17.65;;
54261;SDS011;40174;52.364;6.452;2023-04-22T23:29:37;51.15;;;17.85;;
54261;SDS011;40174;52.364;6.452;2023-04-22T23:32:06;54.08;;;20.48;;
54261;SDS011;40174;52.364;6.452;2023-04-22T23:34:33;53.20;;;19.67;;
54261;SDS011;40174;52.364;6.452;2023-04-22T23:37:01;48.50;;;18.73;;
54261;SDS011;40174;52.364;6.452;2023-04-22T23:39:30;47.00;;;18.15;;
54261;SDS011;40174;52.364;6.452;2023-04-22T23:41:57;51.83;;;19.85;;
54261;SDS011;40174;52.364;6.452;2023-04-22T23:44:23;55.50;;;19.88;;
54261;SDS011;40174;52.364;6.452;2023-04-22T23:46:50;55.95;;;21.08;;
54261;SDS011;40174;52.364;6.452;2023-04-22T23:49:18;54.00;;;20.80;;
54261;SDS011;40174;52.364;6.452;2023-04-22T23:51:45;60.95;;;21.85;;
54261;SDS011;40174;52.364;6.452;2023-04-22T23:54:11;60.10;;;21.38;;
54261;SDS011;40174;52.364;6.452;2023-04-22T23:56:40;57.75;;;22.40;;
54261;SDS011;40174;52.364;6.452;2023-04-22T23:59:07;58.60;;;22.48;;
